createdAt,value
2017-11-13T00:01:54.272Z,8.50
2017-11-13T00:04:21.252Z,8.33
2017-11-13T00:06:48.543Z,9.07
2017-11-13T00:09:16.199Z,9.70
2017-11-13T00:11:43.108Z,9.53
2017-11-13T00:14:10.428Z,10.33
2017-11-13T00:16:38.231Z,8.83
2017-11-13T00:19:05.629Z,8.90
2017-11-13T00:21:32.627Z,9.93
2017-11-13T00:23:59.559Z,9.73
2017-11-13T00:26:26.544Z,10.03
2017-11-13T00:28:53.834Z,9.17
2017-11-13T00:31:20.771Z,9.97
2017-11-13T00:33:47.655Z,10.00
2017-11-13T00:36:14.629Z,10.17
2017-11-13T00:38:42.017Z,10.60
2017-11-13T00:41:09.019Z,9.80
2017-11-13T00:43:35.908Z,9.43
2017-11-13T00:46:02.792Z,9.50
2017-11-13T00:48:29.764Z,9.63
2017-11-13T00:50:57.119Z,10.40
2017-11-13T00:53:24.407Z,9.90
2017-11-13T00:55:51.329Z,10.60
2017-11-13T00:58:18.622Z,10.53
2017-11-13T01:00:45.620Z,11.10
2017-11-13T01:03:12.974Z,9.10
2017-11-13T01:05:40.330Z,9.20
2017-11-13T01:08:07.219Z,9.40
2017-11-13T01:10:34.130Z,8.50
2017-11-13T01:13:01.472Z,8.53
2017-11-13T01:15:28.934Z,8.80
2017-11-13T01:17:55.829Z,8.70
2017-11-13T01:20:22.784Z,8.37
2017-11-13T01:22:49.771Z,8.37
2017-11-13T01:25:16.660Z,8.80
2017-11-13T01:27:43.564Z,8.10
2017-11-13T01:30:10.519Z,8.00
2017-11-13T01:32:37.806Z,8.03
2017-11-13T01:35:04.691Z,10.37
2017-11-13T01:37:31.654Z,9.17
2017-11-13T01:39:58.539Z,8.97
2017-11-13T01:42:25.427Z,8.57
2017-11-13T01:44:52.358Z,7.60
2017-11-13T01:47:19.238Z,7.67
2017-11-13T01:49:46.189Z,8.23
2017-11-13T01:52:13.506Z,8.17
2017-11-13T01:54:40.480Z,7.03
2017-11-13T01:57:07.372Z,8.03
2017-11-13T01:59:34.276Z,7.80
2017-11-13T02:02:01.638Z,7.83
2017-11-13T02:04:28.605Z,7.93
2017-11-13T02:06:55.488Z,7.40
2017-11-13T02:09:22.390Z,8.63
2017-11-13T02:11:49.719Z,9.00
2017-11-13T02:14:16.602Z,8.70
2017-11-13T02:16:43.487Z,9.07
2017-11-13T02:19:10.407Z,8.90
2017-11-13T02:21:37.302Z,9.00
2017-11-13T02:24:04.192Z,9.20
2017-11-13T02:26:31.106Z,9.93
2017-11-13T02:28:58.393Z,9.07
2017-11-13T02:31:25.281Z,9.10
2017-11-13T02:33:52.206Z,9.63
2017-11-13T02:36:19.095Z,8.97
2017-11-13T02:38:46.374Z,9.60
2017-11-13T02:41:13.291Z,8.10
2017-11-13T02:43:40.590Z,8.77
2017-11-13T02:46:07.486Z,9.33
2017-11-13T02:48:34.807Z,10.10
2017-11-13T02:51:01.692Z,9.60
2017-11-13T02:53:28.981Z,10.27
2017-11-13T02:55:55.899Z,8.87
2017-11-13T02:58:23.179Z,10.83
2017-11-13T03:00:50.080Z,10.03
2017-11-13T03:03:17.040Z,10.17
2017-11-13T03:05:44.387Z,9.47
2017-11-13T03:08:11.280Z,7.93
2017-11-13T03:10:38.267Z,9.00
2017-11-13T03:13:05.161Z,9.80
2017-11-13T03:15:32.056Z,7.53
2017-11-13T03:17:58.983Z,9.00
2017-11-13T03:20:25.875Z,9.13
2017-11-13T03:22:53.159Z,9.20
2017-11-13T03:25:20.075Z,8.50
2017-11-13T03:27:47.350Z,9.57
2017-11-13T03:30:14.289Z,9.20
2017-11-13T03:32:41.212Z,8.73
2017-11-13T03:35:08.155Z,9.10
2017-11-13T03:37:35.080Z,8.70
2017-11-13T03:40:01.977Z,11.13
2017-11-13T03:42:28.891Z,8.60
2017-11-13T03:44:55.838Z,9.97
2017-11-13T03:47:22.783Z,9.73
2017-11-13T03:49:49.680Z,10.33
2017-11-13T03:52:16.675Z,10.00
2017-11-13T03:54:43.631Z,10.43
2017-11-13T03:57:10.519Z,9.90
2017-11-13T03:59:37.707Z,9.90
2017-11-13T04:02:04.675Z,11.00
2017-11-13T04:04:31.959Z,10.27
2017-11-13T04:06:58.966Z,10.07
2017-11-13T04:09:25.865Z,10.63
2017-11-13T04:11:52.755Z,8.40
2017-11-13T04:14:19.714Z,9.60
2017-11-13T04:16:46.994Z,9.60
2017-11-13T04:19:13.911Z,9.77
2017-11-13T04:21:41.275Z,9.17
2017-11-13T04:24:08.567Z,10.40
2017-11-13T04:26:35.567Z,9.77
2017-11-13T04:29:02.475Z,9.83
2017-11-13T04:31:29.457Z,8.70
2017-11-13T04:33:56.403Z,10.00
2017-11-13T04:36:23.355Z,9.80
2017-11-13T04:38:50.300Z,9.60
2017-11-13T04:41:17.224Z,10.80
2017-11-13T04:43:44.196Z,10.83
2017-11-13T04:46:11.481Z,10.00
2017-11-13T04:48:38.512Z,9.57
2017-11-13T04:51:05.808Z,11.00
2017-11-13T04:53:32.795Z,10.33
2017-11-13T04:55:59.751Z,10.13
2017-11-13T04:58:26.667Z,9.53
2017-11-13T05:00:53.558Z,10.40
2017-11-13T05:03:20.840Z,11.50
2017-11-13T05:05:47.763Z,11.10
2017-11-13T05:08:14.702Z,11.23
2017-11-13T05:10:41.994Z,11.27
2017-11-13T05:13:08.893Z,11.23
2017-11-13T05:15:36.294Z,10.77
2017-11-13T05:18:03.186Z,11.10
2017-11-13T05:20:30.066Z,11.07
2017-11-13T05:22:56.987Z,11.00
2017-11-13T05:25:24.303Z,10.80
2017-11-13T05:27:51.198Z,10.20
2017-11-13T05:30:18.091Z,9.00
2017-11-13T05:32:45.025Z,11.47
2017-11-13T05:35:11.930Z,11.43
2017-11-13T05:40:35.463Z,10.83
2017-11-13T05:43:02.386Z,12.30
2017-11-13T05:45:29.283Z,11.33
2017-11-13T05:47:56.185Z,11.33
2017-11-13T05:52:55.559Z,13.43
2017-11-13T05:55:22.486Z,11.70
2017-11-13T05:57:52.026Z,10.90
2017-11-13T06:00:20.210Z,12.13
2017-11-13T06:02:48.904Z,12.03
2017-11-13T06:05:15.815Z,12.93
2017-11-13T06:07:47.791Z,12.97
2017-11-13T06:10:15.075Z,12.07
2017-11-13T06:12:42.763Z,12.20
2017-11-13T06:15:09.683Z,12.90
2017-11-13T06:17:52.550Z,12.50
2017-11-13T06:20:19.479Z,13.67
2017-11-13T06:22:46.366Z,13.97
2017-11-13T06:25:14.539Z,13.67
2017-11-13T06:27:41.903Z,14.87
2017-11-13T06:30:12.278Z,15.93
2017-11-13T06:32:39.175Z,13.00
2017-11-13T06:35:10.459Z,14.03
2017-11-13T06:37:37.354Z,15.63
2017-11-13T06:42:48.787Z,15.47
2017-11-13T06:45:17.696Z,16.60
2017-11-13T06:50:29.101Z,12.50
2017-11-13T06:52:56.018Z,14.27
2017-11-13T06:55:23.368Z,14.97
2017-11-13T06:57:51.604Z,14.43
2017-11-13T07:00:19.504Z,14.50
2017-11-13T07:02:52.703Z,13.40
2017-11-13T07:05:20.055Z,14.33
2017-11-13T07:07:50.899Z,12.60
2017-11-13T07:10:21.236Z,15.27
2017-11-13T07:12:50.823Z,14.13
2017-11-13T07:15:19.761Z,14.57
2017-11-13T07:17:46.664Z,13.80
2017-11-13T07:20:14.461Z,12.90
2017-11-13T07:22:43.335Z,12.93
2017-11-13T07:25:10.659Z,14.33
2017-11-13T07:27:37.670Z,12.77
2017-11-13T07:30:16.552Z,12.50
2017-11-13T07:32:44.939Z,12.47
2017-11-13T07:35:12.231Z,13.60
2017-11-13T07:37:48.687Z,14.60
2017-11-13T07:40:17.553Z,12.47
2017-11-13T07:42:44.947Z,12.87
2017-11-13T07:45:22.952Z,11.93
2017-11-13T07:47:49.856Z,13.17
2017-11-13T07:50:17.655Z,13.70
2017-11-13T07:52:47.434Z,12.10
2017-11-13T07:57:58.626Z,12.07
2017-11-13T08:00:25.579Z,11.50
2017-11-13T08:02:56.523Z,10.53
2017-11-13T08:05:24.642Z,12.27
2017-11-13T08:07:51.540Z,10.97
2017-11-13T08:10:26.723Z,9.20
2017-11-13T08:12:53.642Z,10.80
2017-11-13T08:15:21.899Z,9.50
2017-11-13T08:20:35.171Z,9.33
2017-11-13T08:23:04.142Z,10.33
2017-11-13T08:28:15.726Z,10.40
2017-11-13T08:30:46.299Z,9.40
2017-11-13T08:33:13.582Z,11.27
2017-11-13T08:35:41.295Z,10.90
2017-11-13T08:38:26.159Z,9.87
2017-11-13T08:40:53.094Z,12.27
2017-11-13T08:48:48.663Z,9.43
2017-11-13T08:51:19.604Z,9.30
2017-11-13T08:53:51.461Z,8.77
2017-11-13T08:56:20.354Z,12.87
2017-11-13T08:58:47.307Z,8.70
2017-11-13T09:01:18.010Z,9.00
2017-11-13T09:03:45.868Z,8.80
2017-11-13T09:06:15.167Z,9.60
2017-11-13T09:08:42.082Z,8.73
2017-11-13T09:11:10.574Z,12.53
2017-11-13T09:13:37.480Z,9.73
2017-11-13T09:16:04.395Z,11.23
2017-11-13T09:18:31.303Z,10.27
2017-11-13T09:20:58.266Z,8.70
2017-11-13T09:23:25.315Z,17.53
2017-11-13T09:28:41.668Z,8.97
2017-11-13T09:31:08.636Z,8.53
2017-11-13T09:33:36.016Z,9.53
2017-11-13T09:36:08.787Z,8.73
2017-11-13T09:38:36.073Z,7.93
2017-11-13T09:41:02.961Z,7.43
2017-11-13T09:43:30.631Z,6.43
2017-11-13T09:45:59.319Z,6.97
2017-11-13T09:48:40.251Z,8.07
2017-11-13T09:53:51.399Z,6.07
2017-11-13T09:56:20.683Z,10.33
2017-11-13T09:58:49.537Z,8.67
2017-11-13T10:01:16.419Z,9.50
2017-11-13T10:03:43.313Z,6.63
2017-11-13T10:08:42.490Z,7.20
2017-11-13T10:11:09.415Z,8.63
2017-11-13T10:13:37.792Z,7.60
2017-11-13T10:16:06.415Z,7.60
2017-11-13T10:18:34.279Z,7.90
2017-11-13T10:21:07.451Z,11.17
2017-11-13T10:23:34.384Z,6.23
2017-11-13T10:26:01.998Z,7.33
2017-11-13T10:28:29.331Z,5.07
2017-11-13T10:30:57.166Z,4.90
2017-11-13T10:33:24.143Z,5.93
2017-11-13T10:35:57.997Z,9.23
2017-11-13T10:38:29.918Z,7.80
2017-11-13T10:40:56.847Z,6.53
2017-11-13T10:43:23.739Z,8.37
2017-11-13T10:46:05.671Z,6.77
2017-11-13T10:48:35.214Z,13.67
2017-11-13T10:51:04.144Z,6.37
2017-11-13T10:53:31.024Z,5.50
2017-11-13T10:55:57.965Z,8.10
2017-11-13T10:58:31.774Z,7.17
2017-11-13T11:00:59.351Z,8.00
2017-11-13T11:03:29.951Z,6.17
2017-11-13T11:05:56.947Z,8.50
2017-11-13T11:08:27.784Z,9.60
2017-11-13T11:10:55.895Z,6.47
2017-11-13T11:13:24.727Z,6.73
2017-11-13T11:15:55.378Z,8.87
2017-11-13T11:18:22.301Z,4.40
2017-11-13T11:20:53.168Z,6.97
2017-11-13T11:23:22.075Z,9.40
2017-11-13T11:25:52.311Z,8.00
2017-11-13T11:28:19.971Z,6.63
2017-11-13T11:30:47.820Z,8.67
2017-11-13T11:33:15.096Z,7.30
2017-11-13T11:35:43.986Z,5.67
2017-11-13T11:38:16.943Z,5.77
2017-11-13T11:40:43.908Z,10.63
2017-11-13T11:43:12.583Z,6.97
2017-11-13T11:45:43.359Z,5.80
2017-11-13T11:48:11.091Z,4.27
2017-11-13T11:50:38.402Z,5.87
2017-11-13T11:53:05.304Z,5.83
2017-11-13T12:01:01.146Z,8.07
2017-11-13T12:03:28.471Z,8.07
2017-11-13T12:05:55.363Z,5.63
2017-11-13T12:08:22.740Z,10.77
2017-11-13T12:10:49.852Z,6.07
2017-11-13T12:13:17.165Z,5.77
2017-11-13T12:15:44.051Z,9.90
2017-11-13T12:18:10.963Z,11.33
2017-11-13T12:20:37.882Z,7.17
2017-11-13T12:23:04.763Z,7.10
2017-11-13T12:25:31.686Z,5.37
2017-11-13T12:27:58.670Z,6.43
2017-11-13T12:30:25.668Z,4.97
2017-11-13T12:32:52.583Z,8.20
2017-11-13T12:35:19.527Z,4.97
2017-11-13T12:37:46.916Z,7.90
2017-11-13T12:40:13.873Z,5.23
2017-11-13T12:42:40.782Z,5.83
2017-11-13T12:45:08.079Z,10.03
2017-11-13T12:47:35.240Z,6.70
2017-11-13T12:50:02.215Z,5.60
2017-11-13T12:52:29.122Z,5.17
2017-11-13T12:54:56.133Z,3.50
2017-11-13T12:57:23.443Z,7.13
2017-11-13T12:59:50.339Z,4.43
2017-11-13T13:02:17.227Z,3.70
2017-11-13T13:04:44.215Z,5.43
2017-11-13T13:07:11.507Z,5.07
2017-11-13T13:09:38.392Z,7.50
2017-11-13T13:12:05.306Z,4.60
2017-11-13T13:14:32.199Z,5.40
2017-11-13T13:16:59.515Z,3.77
2017-11-13T13:19:26.440Z,4.43
2017-11-13T13:21:53.343Z,7.57
2017-11-13T13:24:20.300Z,5.67
2017-11-13T13:26:47.690Z,7.87
2017-11-13T13:29:14.570Z,7.40
2017-11-13T13:31:41.495Z,3.37
2017-11-13T13:34:08.530Z,9.03
2017-11-13T13:36:35.412Z,4.30
2017-11-13T13:39:02.290Z,5.43
2017-11-13T13:41:29.631Z,6.50
2017-11-13T13:43:56.531Z,4.07
2017-11-13T13:46:23.528Z,4.90
2017-11-13T13:48:50.442Z,6.00
2017-11-13T13:51:17.333Z,11.90
2017-11-13T13:53:44.614Z,5.80
2017-11-13T13:56:11.519Z,6.20
2017-11-13T13:58:38.456Z,5.13
2017-11-13T14:01:05.407Z,8.27
2017-11-13T14:03:32.398Z,4.77
2017-11-13T14:05:59.343Z,5.93
2017-11-13T14:08:26.276Z,7.70
2017-11-13T14:10:53.179Z,7.07
2017-11-13T14:13:20.067Z,6.00
2017-11-13T14:15:47.047Z,4.00
2017-11-13T14:18:13.941Z,3.60
2017-11-13T14:20:41.284Z,4.93
2017-11-13T14:23:08.235Z,5.27
2017-11-13T14:25:35.543Z,7.13
2017-11-13T14:28:02.427Z,5.60
2017-11-13T14:30:29.389Z,4.73
2017-11-13T14:32:56.671Z,3.83
2017-11-13T14:35:23.551Z,3.87
2017-11-13T14:37:50.466Z,5.10
2017-11-13T14:40:17.367Z,6.17
2017-11-13T14:42:44.252Z,6.83
2017-11-13T14:45:11.254Z,6.00
2017-11-13T14:47:38.165Z,4.20
2017-11-13T14:50:05.159Z,7.97
2017-11-13T14:52:32.475Z,5.53
2017-11-13T14:54:59.371Z,6.23
2017-11-13T14:57:26.710Z,7.33
2017-11-13T14:59:53.656Z,5.70
2017-11-13T15:02:20.955Z,5.17
2017-11-13T15:04:47.838Z,8.63
2017-11-13T15:07:14.798Z,6.67
2017-11-13T15:09:41.793Z,7.23
2017-11-13T15:12:08.697Z,4.83
2017-11-13T15:14:35.639Z,5.90
2017-11-13T15:17:02.587Z,6.40
2017-11-13T15:19:29.532Z,7.20
2017-11-13T15:21:56.479Z,5.30
2017-11-13T15:24:23.430Z,6.73
2017-11-13T15:26:50.712Z,4.30
2017-11-13T15:29:17.626Z,9.23
2017-11-13T15:31:44.635Z,8.67
2017-11-13T15:34:11.588Z,5.03
2017-11-13T15:36:38.608Z,7.93
2017-11-13T15:39:05.510Z,9.00
2017-11-13T15:41:32.434Z,6.37
2017-11-13T15:43:59.403Z,4.33
2017-11-13T15:46:26.354Z,6.83
2017-11-13T15:48:53.670Z,9.83
2017-11-13T15:51:20.554Z,8.23
2017-11-13T15:53:47.442Z,7.43
2017-11-13T15:56:14.400Z,6.80
2017-11-13T15:58:41.283Z,7.90
2017-11-13T16:01:08.166Z,6.37
2017-11-13T16:03:35.086Z,7.63
2017-11-13T16:06:02.376Z,7.23
2017-11-13T16:08:29.279Z,10.40
2017-11-13T16:10:56.227Z,17.03
2017-11-13T16:13:23.115Z,8.43
2017-11-13T16:15:50.015Z,14.50
2017-11-13T16:18:16.967Z,11.60
2017-11-13T16:20:43.905Z,13.77
2017-11-13T16:23:10.865Z,12.27
2017-11-13T16:25:38.219Z,10.00
2017-11-13T16:28:05.616Z,7.63
2017-11-13T16:30:32.515Z,11.93
2017-11-13T16:32:59.454Z,8.37
2017-11-13T16:35:26.408Z,14.27
2017-11-13T16:37:53.694Z,6.67
2017-11-13T16:40:20.707Z,10.80
2017-11-13T16:42:47.664Z,12.10
2017-11-13T16:45:14.550Z,9.63
2017-11-13T16:47:41.495Z,9.00
2017-11-13T16:50:08.395Z,7.30
2017-11-13T16:52:35.383Z,10.70
2017-11-13T16:55:02.413Z,9.53
2017-11-13T16:57:29.702Z,9.23
2017-11-13T16:59:56.687Z,8.90
2017-11-13T17:02:23.678Z,7.20
2017-11-13T17:04:50.588Z,7.27
2017-11-13T17:07:17.942Z,9.63
2017-11-13T17:09:45.223Z,9.00
2017-11-13T17:12:12.112Z,8.00
2017-11-13T17:14:39.052Z,8.63
2017-11-13T17:17:06.036Z,9.30
2017-11-13T17:19:32.921Z,9.17
2017-11-13T17:21:59.872Z,10.17
2017-11-13T17:24:26.757Z,9.53
2017-11-13T17:26:53.710Z,7.80
2017-11-13T17:29:20.671Z,12.50
2017-11-13T17:31:47.956Z,11.60
2017-11-13T17:34:14.860Z,10.27
2017-11-13T17:36:41.810Z,10.70
2017-11-13T17:39:09.160Z,8.93
2017-11-13T17:41:36.072Z,8.93
2017-11-13T17:44:02.990Z,12.80
2017-11-13T17:46:29.880Z,7.63
2017-11-13T17:48:56.784Z,8.60
2017-11-13T17:51:23.735Z,8.83
2017-11-13T17:53:50.622Z,8.87
2017-11-13T17:56:17.519Z,12.00
2017-11-13T17:58:44.531Z,11.43
2017-11-13T18:01:11.479Z,10.60
2017-11-13T18:03:38.755Z,8.70
2017-11-13T18:06:05.678Z,10.20
2017-11-13T18:08:33.076Z,10.03
2017-11-13T18:10:59.962Z,8.10
2017-11-13T18:13:26.879Z,7.83
2017-11-13T18:15:53.917Z,9.03
2017-11-13T18:18:20.814Z,12.57
2017-11-13T18:20:47.764Z,15.80
2017-11-13T18:23:15.118Z,12.20
2017-11-13T18:25:42.474Z,11.30
2017-11-13T18:28:09.424Z,10.37
2017-11-13T18:30:36.718Z,9.43
2017-11-13T18:33:03.624Z,9.40
2017-11-13T18:35:30.974Z,11.13
2017-11-13T18:37:57.923Z,11.30
2017-11-13T18:40:24.820Z,12.50
2017-11-13T18:42:51.742Z,17.20
2017-11-13T18:45:18.658Z,13.57
2017-11-13T18:47:45.611Z,12.10
2017-11-13T18:50:12.940Z,11.40
2017-11-13T18:52:39.836Z,10.30
2017-11-13T18:55:06.763Z,12.27
2017-11-13T18:57:33.690Z,13.53
2017-11-13T19:00:00.588Z,12.90
2017-11-13T19:02:27.490Z,14.50
2017-11-13T19:04:54.404Z,12.57
2017-11-13T19:07:21.378Z,13.83
2017-11-13T19:09:48.298Z,15.30
2017-11-13T19:12:15.222Z,14.37
2017-11-13T19:14:42.147Z,16.53
2017-11-13T19:17:09.063Z,11.93
2017-11-13T19:19:36.016Z,15.73
2017-11-13T19:22:03.370Z,18.87
2017-11-13T19:24:30.282Z,13.93
2017-11-13T19:26:57.261Z,15.10
2017-11-13T19:29:24.222Z,17.13
2017-11-13T19:31:51.511Z,10.43
2017-11-13T19:34:18.394Z,12.53
2017-11-13T19:36:45.364Z,14.10
2017-11-13T19:39:12.717Z,15.87
2017-11-13T19:41:40.032Z,12.53
2017-11-13T19:44:07.012Z,12.10
2017-11-13T19:46:33.959Z,14.87
2017-11-13T19:49:00.906Z,15.63
2017-11-13T19:51:27.816Z,18.47
2017-11-13T19:53:54.706Z,15.93
2017-11-13T19:56:22.038Z,14.70
2017-11-13T19:58:48.927Z,12.73
2017-11-13T20:01:15.840Z,15.33
2017-11-13T20:03:42.790Z,11.93
2017-11-13T20:06:10.084Z,15.60
2017-11-13T20:08:37.002Z,15.27
2017-11-13T20:11:04.301Z,13.10
2017-11-13T20:13:31.285Z,11.53
2017-11-13T20:15:58.209Z,12.60
2017-11-13T20:18:25.186Z,14.17
2017-11-13T20:20:52.132Z,12.60
2017-11-13T20:23:19.087Z,12.00
2017-11-13T20:25:46.370Z,8.30
2017-11-13T20:28:13.275Z,10.47
2017-11-13T20:30:40.223Z,15.53
2017-11-13T20:33:07.130Z,16.83
2017-11-13T20:35:34.119Z,15.23
2017-11-13T20:38:01.013Z,16.47
2017-11-13T20:40:27.911Z,15.93
2017-11-13T20:42:55.247Z,12.20
2017-11-13T20:45:22.219Z,16.40
2017-11-13T20:47:49.506Z,14.70
2017-11-13T20:50:16.510Z,15.63
2017-11-13T20:52:43.402Z,13.07
2017-11-13T20:55:10.331Z,15.07
2017-11-13T20:57:37.275Z,15.00
2017-11-13T21:00:04.199Z,13.30
2017-11-13T21:02:31.142Z,11.87
2017-11-13T21:04:58.088Z,15.40
2017-11-13T21:07:24.998Z,13.60
2017-11-13T21:09:51.945Z,14.00
2017-11-13T21:12:18.926Z,19.03
2017-11-13T21:14:45.846Z,16.27
2017-11-13T21:17:12.768Z,31.47
2017-11-13T21:19:39.772Z,18.53
2017-11-13T21:22:07.054Z,18.77
2017-11-13T21:24:33.963Z,16.57
2017-11-13T21:27:00.916Z,15.07
2017-11-13T21:29:28.241Z,18.30
2017-11-13T21:31:55.215Z,21.20
2017-11-13T21:34:22.499Z,16.07
2017-11-13T21:36:49.416Z,19.87
2017-11-13T21:39:16.309Z,20.87
2017-11-13T21:41:43.311Z,17.03
2017-11-13T21:44:10.271Z,17.43
2017-11-13T21:46:37.590Z,18.77
2017-11-13T21:49:04.570Z,14.43
2017-11-13T21:51:31.847Z,15.00
2017-11-13T21:53:58.773Z,14.67
2017-11-13T21:56:26.059Z,13.83
2017-11-13T21:58:52.960Z,17.93
2017-11-13T22:01:19.914Z,16.53
2017-11-13T22:03:47.263Z,14.63
2017-11-13T22:06:14.143Z,14.17
2017-11-13T22:08:41.158Z,20.30
2017-11-13T22:11:08.447Z,17.47
2017-11-13T22:13:35.335Z,14.73
2017-11-13T22:16:02.307Z,16.53
2017-11-13T22:18:29.655Z,14.77
2017-11-13T22:20:56.539Z,13.77
2017-11-13T22:23:23.527Z,14.37
2017-11-13T22:25:50.415Z,16.77
2017-11-13T22:28:17.333Z,14.53
2017-11-13T22:30:44.284Z,15.33
2017-11-13T22:33:11.234Z,12.93
2017-11-13T22:35:38.582Z,13.50
2017-11-13T22:38:05.530Z,16.30
2017-11-13T22:40:32.479Z,17.87
2017-11-13T22:42:59.430Z,13.13
2017-11-13T22:45:26.741Z,17.77
2017-11-13T22:47:53.727Z,16.47
2017-11-13T22:50:20.679Z,25.70
2017-11-13T22:52:47.964Z,22.40
2017-11-13T22:55:14.847Z,12.73
2017-11-13T22:57:41.766Z,14.70
2017-11-13T23:00:08.667Z,20.30
2017-11-13T23:02:35.585Z,18.97
2017-11-13T23:05:02.482Z,20.37
2017-11-13T23:07:29.463Z,16.87
2017-11-13T23:09:56.391Z,16.63
2017-11-13T23:12:23.283Z,17.87
2017-11-13T23:14:50.172Z,20.47
2017-11-13T23:17:17.090Z,18.50
2017-11-13T23:19:44.406Z,21.47
2017-11-13T23:22:11.302Z,24.83
2017-11-13T23:24:38.229Z,22.27
2017-11-13T23:27:05.175Z,20.50
2017-11-13T23:29:32.059Z,21.73
2017-11-13T23:31:59.071Z,18.37
2017-11-13T23:34:26.354Z,16.73
2017-11-13T23:36:53.254Z,18.83
2017-11-13T23:39:20.187Z,24.03
2017-11-13T23:41:47.166Z,19.10
2017-11-13T23:44:14.111Z,20.80
2017-11-13T23:46:41.035Z,14.83
2017-11-13T23:49:07.919Z,17.07
2017-11-13T23:51:35.219Z,19.10
2017-11-13T23:54:02.207Z,26.17
2017-11-13T23:56:29.507Z,17.10
2017-11-13T23:58:56.403Z,22.47
